Strona główna
METAR-TAF:

METAR-TAF

Lotnisko :

Port lotniczy Bonriki

Tarawa, Kiribati

Szerokość geograficzna: 01-21N, Długość geograficzna: 172-55E, wysokość: 2 m

Aktualna obserwacja pogody

Raport powstał 40 minut temu, godzina 12:00 UTC
Wiatr 8 kt od wschód
Temperatura 28°C
Wilgotność 84%
Ciśnienie 1010 hPa
Widzialność 10 km lub więcej
Mało chmury na wysokości 2000 ft
Rozproszone chmury na wysokości 30000 ft

METAR: NGTA 181200Z 09008KT 9999 FEW020 SCT300 28/25 Q1010

czas: 02:40 (12:40 UTC)

Prognoza

Raport powstał 1 godzina i 32 minut temu, godzina 11:08 UTC
Prognoza ważna od 18 godzina 12 UTC do 19 godzina 12 UTC
Wiatr 8 kt od wschód
Widzialność 10 km lub więcej
Rozproszone chmury na wysokości 2000 ft
Rozproszone chmury na wysokości 10000 ft

TAF: NGTA 181108Z 1812/1912 08008KT 9999 SCT020 SCT100

Obserwacja i prognoza pogody dla ponad 4000 lotnisk (raport METAR i TAF).

Dostępne stacje oznaczono żółtymi i czerwonymi punktami na mapie.

Najedź kursorem aby zobaczyć nazwę stacji.

Kliknij aby zobaczyć obserwacje i prognozy pogody.

Aby zmienić mapę: kliknij na zielony przycisk z czarnym krzyżykiem, aby powiększyć; na zielony przycisk z myślnikiem, aby pomniejszyć; na zielone strzałki, aby przejść do map sąsiednich.


METAR-TAF: